createdAt,value
2016-09-23T00:00:26.749Z,1009.75
2016-09-23T00:01:26.771Z,1009.69
2016-09-23T00:02:26.794Z,1009.75
2016-09-23T00:03:26.814Z,1009.72
2016-09-23T00:04:26.837Z,1009.73
2016-09-23T00:05:26.861Z,1009.74
2016-09-23T00:06:26.881Z,1009.73
2016-09-23T00:07:26.903Z,1009.73
2016-09-23T00:08:26.925Z,1009.73
2016-09-23T00:09:26.947Z,1009.74
2016-09-23T00:10:26.969Z,1009.7
2016-09-23T00:11:26.990Z,1009.71
2016-09-23T00:12:27.012Z,1009.72
2016-09-23T00:13:27.034Z,1009.71
2016-09-23T00:14:27.056Z,1009.72
2016-09-23T00:15:27.078Z,1009.68
2016-09-23T00:16:27.100Z,1009.71
2016-09-23T00:17:27.123Z,1009.71
2016-09-23T00:18:27.144Z,1009.7
2016-09-23T00:19:27.167Z,1009.71
2016-09-23T00:20:27.188Z,1009.67
2016-09-23T00:21:27.210Z,1009.71
2016-09-23T00:22:27.231Z,1009.69
2016-09-23T00:23:27.256Z,1009.65
2016-09-23T00:24:27.276Z,1009.68
2016-09-23T00:25:27.298Z,1009.68
2016-09-23T00:26:27.319Z,1009.64
2016-09-23T00:27:27.340Z,1009.65
2016-09-23T00:28:27.363Z,1009.63
2016-09-23T00:29:27.384Z,1009.65
2016-09-23T00:30:27.408Z,1009.64
2016-09-23T00:31:27.428Z,1009.64
2016-09-23T00:32:27.452Z,1009.64
2016-09-23T00:33:27.472Z,1009.64
2016-09-23T00:34:27.496Z,1009.67
2016-09-23T00:35:27.517Z,1009.68
2016-09-23T00:36:27.537Z,1009.68
2016-09-23T00:37:27.559Z,1009.68
2016-09-23T00:38:27.582Z,1009.69
2016-09-23T00:39:27.609Z,1009.69
2016-09-23T00:40:27.625Z,1009.67
2016-09-23T00:41:27.649Z,1009.7
2016-09-23T00:42:27.669Z,1009.65
2016-09-23T00:43:27.692Z,1009.66
2016-09-23T00:44:27.712Z,1009.65
2016-09-23T00:45:27.735Z,1009.73
2016-09-23T00:46:27.758Z,1009.72
2016-09-23T00:47:27.777Z,1009.74
2016-09-23T00:48:27.802Z,1009.74
2016-09-23T00:49:27.822Z,1009.76
2016-09-23T00:50:27.846Z,1009.72
2016-09-23T00:51:27.867Z,1009.75
2016-09-23T00:52:27.887Z,1009.76
2016-09-23T00:53:27.910Z,1009.75
2016-09-23T00:54:27.930Z,1009.77
2016-09-23T00:55:27.952Z,1009.74
2016-09-23T00:56:27.974Z,1009.77
2016-09-23T00:57:27.997Z,1009.74
2016-09-23T00:58:28.018Z,1009.75
2016-09-23T00:59:28.040Z,1009.74
2016-09-23T01:00:28.065Z,1009.74
2016-09-23T01:01:28.085Z,1009.75
2016-09-23T01:02:28.105Z,1009.72
2016-09-23T01:03:28.125Z,1009.7
2016-09-23T01:04:28.150Z,1009.7
2016-09-23T01:05:28.171Z,1009.69
2016-09-23T01:06:28.193Z,1009.7
2016-09-23T01:07:28.221Z,1009.62
2016-09-23T01:08:28.237Z,1009.66
2016-09-23T01:09:28.258Z,1009.66
2016-09-23T01:10:28.279Z,1009.69
2016-09-23T01:11:28.302Z,1009.7
2016-09-23T01:12:28.326Z,1009.72
2016-09-23T01:13:28.347Z,1009.74
2016-09-23T01:14:28.368Z,1009.77
2016-09-23T01:15:28.389Z,1009.74
2016-09-23T01:16:28.411Z,1009.78
2016-09-23T01:17:28.433Z,1009.76
2016-09-23T01:18:28.456Z,1009.76
2016-09-23T01:19:28.476Z,1009.78
2016-09-23T01:20:28.497Z,1009.82
2016-09-23T01:21:28.519Z,1009.78
2016-09-23T01:22:28.542Z,1009.79
2016-09-23T01:23:28.563Z,1009.78
2016-09-23T01:24:28.585Z,1009.81
2016-09-23T01:25:28.610Z,1009.79
2016-09-23T01:26:28.629Z,1009.82
2016-09-23T01:27:28.650Z,1009.77
2016-09-23T01:28:28.672Z,1009.8
2016-09-23T01:29:28.700Z,1009.79
2016-09-23T01:30:28.716Z,1009.82
2016-09-23T01:31:28.736Z,1009.82
2016-09-23T01:32:28.759Z,1009.85
2016-09-23T01:33:28.780Z,1009.85
2016-09-23T01:34:28.802Z,1009.84
2016-09-23T01:35:28.823Z,1009.82
2016-09-23T01:36:28.845Z,1009.85
2016-09-23T01:37:28.868Z,1009.86
2016-09-23T01:38:28.889Z,1009.83
2016-09-23T01:39:28.911Z,1009.83
2016-09-23T01:40:28.931Z,1009.84
2016-09-23T01:41:28.955Z,1009.84
2016-09-23T01:42:28.976Z,1009.82
2016-09-23T01:43:28.998Z,1009.75
2016-09-23T01:44:29.019Z,1009.75
2016-09-23T01:45:29.041Z,1009.79
2016-09-23T01:46:29.062Z,1009.74
2016-09-23T01:47:29.085Z,1009.75
2016-09-23T01:48:29.106Z,1009.76
2016-09-23T01:49:29.126Z,1009.75
2016-09-23T01:50:29.149Z,1009.73
2016-09-23T01:51:29.170Z,1009.72
2016-09-23T01:52:29.193Z,1009.75
2016-09-23T01:53:29.213Z,1009.72
2016-09-23T01:54:29.237Z,1009.73
2016-09-23T01:55:29.258Z,1009.72
2016-09-23T01:56:29.278Z,1009.73
2016-09-23T01:57:29.300Z,1009.71
2016-09-23T01:58:29.321Z,1009.72
2016-09-23T01:59:29.344Z,1009.7
2016-09-23T02:00:29.365Z,1009.72
2016-09-23T02:01:29.386Z,1009.75
2016-09-23T02:02:29.413Z,1009.71
2016-09-23T02:03:29.430Z,1009.73
2016-09-23T02:04:29.453Z,1009.74
2016-09-23T02:05:29.588Z,1009.77
2016-09-23T02:06:29.598Z,1009.77
2016-09-23T02:07:29.607Z,1009.72
2016-09-23T02:08:29.638Z,1009.74
2016-09-23T02:09:29.639Z,1009.73
2016-09-23T02:10:29.783Z,1009.72
2016-09-23T02:11:29.660Z,1009.76
2016-09-23T02:12:29.666Z,1009.74
2016-09-23T02:13:29.673Z,1009.7
2016-09-23T02:14:29.671Z,1009.71
2016-09-23T02:15:29.856Z,1009.72
2016-09-23T02:16:29.751Z,1009.69
2016-09-23T02:17:29.764Z,1009.71
2016-09-23T02:18:29.759Z,1009.74
2016-09-23T02:19:29.790Z,1009.77
2016-09-23T02:20:29.950Z,1009.74
2016-09-23T02:21:29.899Z,1009.74
2016-09-23T02:22:29.910Z,1009.71
2016-09-23T02:23:29.941Z,1009.72
2016-09-23T02:24:29.944Z,1009.69
2016-09-23T02:25:30.007Z,1009.71
2016-09-23T02:26:29.961Z,1009.7
2016-09-23T02:27:29.966Z,1009.7
2016-09-23T02:28:29.973Z,1009.73
2016-09-23T02:29:29.994Z,1009.73
2016-09-23T02:30:30.032Z,1009.71
2016-09-23T02:31:30.035Z,1009.76
2016-09-23T02:32:30.058Z,1009.74
2016-09-23T02:33:30.079Z,1009.74
2016-09-23T02:34:30.100Z,1009.73
2016-09-23T02:35:30.122Z,1009.75
2016-09-23T02:36:30.144Z,1009.73
2016-09-23T02:37:30.164Z,1009.74
2016-09-23T02:38:30.187Z,1009.75
2016-09-23T02:39:30.208Z,1009.76
2016-09-23T02:40:30.246Z,1009.76
2016-09-23T02:41:30.252Z,1009.77
2016-09-23T02:42:30.275Z,1009.78
2016-09-23T02:43:30.296Z,1009.75
2016-09-23T02:44:30.317Z,1009.77
2016-09-23T02:45:30.343Z,1009.77
2016-09-23T02:46:30.359Z,1009.73
2016-09-23T02:47:30.381Z,1009.75
2016-09-23T02:48:30.403Z,1009.74
2016-09-23T02:49:30.425Z,1009.78
2016-09-23T02:50:30.447Z,1009.78
2016-09-23T02:51:30.468Z,1009.79
2016-09-23T02:52:30.489Z,1009.77
2016-09-23T02:53:30.511Z,1009.78
2016-09-23T02:54:30.533Z,1009.77
2016-09-23T02:55:30.554Z,1009.77
2016-09-23T02:56:30.575Z,1009.78
2016-09-23T02:57:30.597Z,1009.81
2016-09-23T02:58:30.619Z,1009.77
2016-09-23T02:59:30.641Z,1009.78
2016-09-23T03:00:30.661Z,1009.82
2016-09-23T03:01:30.683Z,1009.81
2016-09-23T03:02:30.704Z,1009.82
2016-09-23T03:03:30.725Z,1009.8
2016-09-23T03:04:30.748Z,1009.81
2016-09-23T03:05:30.769Z,1009.83
2016-09-23T03:06:30.791Z,1009.77
2016-09-23T03:07:30.813Z,1009.81
2016-09-23T03:08:30.834Z,1009.79
2016-09-23T03:09:30.857Z,1009.78
2016-09-23T03:10:30.879Z,1009.81
2016-09-23T03:11:30.897Z,1009.78
2016-09-23T03:12:30.920Z,1009.79
2016-09-23T03:13:30.940Z,1009.76
2016-09-23T03:14:30.963Z,1009.75
2016-09-23T03:15:30.985Z,1009.77
2016-09-23T03:16:31.006Z,1009.76
2016-09-23T03:17:31.044Z,1009.74
2016-09-23T03:18:31.049Z,1009.72
2016-09-23T03:19:31.069Z,1009.74
2016-09-23T03:20:31.093Z,1009.73
2016-09-23T03:21:31.112Z,1009.68
2016-09-23T03:22:31.134Z,1009.71
2016-09-23T03:23:31.156Z,1009.7
2016-09-23T03:24:31.176Z,1009.71
2016-09-23T03:25:31.198Z,1009.7
2016-09-23T03:26:31.219Z,1009.71
2016-09-23T03:27:31.243Z,1009.7
2016-09-23T03:28:31.263Z,1009.7
2016-09-23T03:29:31.286Z,1009.69
2016-09-23T03:30:31.308Z,1009.69
2016-09-23T03:31:31.336Z,1009.69
2016-09-23T03:32:31.350Z,1009.69
2016-09-23T03:33:31.371Z,1009.64
2016-09-23T03:34:31.394Z,1009.7
2016-09-23T03:35:31.415Z,1009.7
2016-09-23T03:36:31.436Z,1009.65
2016-09-23T03:37:31.456Z,1009.66
2016-09-23T03:38:31.479Z,1009.65
2016-09-23T03:39:31.500Z,1009.67
2016-09-23T03:40:31.520Z,1009.67
2016-09-23T03:41:31.545Z,1009.65
2016-09-23T03:42:31.565Z,1009.7
2016-09-23T03:43:31.584Z,1009.66
2016-09-23T03:44:31.623Z,1009.66
2016-09-23T03:45:31.629Z,1009.62
2016-09-23T03:46:31.650Z,1009.64
2016-09-23T03:47:31.670Z,1009.58
2016-09-23T03:48:31.692Z,1009.57
2016-09-23T03:49:31.716Z,1009.64
2016-09-23T03:50:31.734Z,1009.58
2016-09-23T03:51:31.757Z,1009.6
2016-09-23T03:52:31.778Z,1009.56
2016-09-23T03:53:31.800Z,1009.59
2016-09-23T03:54:31.821Z,1009.6
2016-09-23T03:55:31.845Z,1009.59
2016-09-23T03:56:31.863Z,1009.6
2016-09-23T03:57:31.883Z,1009.57
2016-09-23T03:58:31.905Z,1009.57
2016-09-23T03:59:31.929Z,1009.56
2016-09-23T04:00:31.950Z,1009.57
2016-09-23T04:01:31.969Z,1009.58
2016-09-23T04:02:31.992Z,1009.58
2016-09-23T04:03:32.012Z,1009.55
2016-09-23T04:04:32.037Z,1009.55
2016-09-23T04:05:32.055Z,1009.57
2016-09-23T04:06:32.077Z,1009.57
2016-09-23T04:07:32.100Z,1009.58
2016-09-23T04:08:32.118Z,1009.57
2016-09-23T04:09:32.141Z,1009.58
2016-09-23T04:10:32.162Z,1009.57
2016-09-23T04:11:32.183Z,1009.6
2016-09-23T04:12:32.205Z,1009.59
2016-09-23T04:13:32.226Z,1009.58
2016-09-23T04:14:32.249Z,1009.6
2016-09-23T04:15:32.269Z,1009.55
2016-09-23T04:16:32.292Z,1009.62
2016-09-23T04:17:32.311Z,1009.59
2016-09-23T04:18:32.333Z,1009.63
2016-09-23T04:19:32.354Z,1009.63
2016-09-23T04:20:32.375Z,1009.61
2016-09-23T04:21:32.398Z,1009.61
2016-09-23T04:22:32.419Z,1009.65
2016-09-23T04:23:32.438Z,1009.65
2016-09-23T04:24:32.460Z,1009.66
2016-09-23T04:25:32.483Z,1009.65
2016-09-23T04:26:32.504Z,1009.67
2016-09-23T04:27:32.524Z,1009.69
2016-09-23T04:28:32.548Z,1009.67
2016-09-23T04:29:32.567Z,1009.66
2016-09-23T04:30:32.588Z,1009.67
2016-09-23T04:31:32.610Z,1009.73
2016-09-23T04:32:32.631Z,1009.7
2016-09-23T04:33:32.656Z,1009.71
2016-09-23T04:34:32.674Z,1009.73
2016-09-23T04:35:32.695Z,1009.75
2016-09-23T04:36:32.717Z,1009.72
2016-09-23T04:37:32.737Z,1009.76
2016-09-23T04:38:32.756Z,1009.79
2016-09-23T04:39:32.778Z,1009.77
2016-09-23T04:40:32.800Z,1009.79
2016-09-23T04:41:32.821Z,1009.82
2016-09-23T04:42:32.842Z,1009.81
2016-09-23T04:43:32.863Z,1009.81
2016-09-23T04:44:32.885Z,1009.82
2016-09-23T04:45:32.905Z,1009.81
2016-09-23T04:46:32.927Z,1009.83
2016-09-23T04:47:32.949Z,1009.82
2016-09-23T04:48:32.969Z,1009.82
2016-09-23T04:49:32.989Z,1009.84
2016-09-23T04:50:33.012Z,1009.84
2016-09-23T04:51:33.042Z,1009.8
2016-09-23T04:52:33.099Z,1009.83
2016-09-23T04:53:33.077Z,1009.86
2016-09-23T04:54:33.099Z,1009.84
2016-09-23T04:55:33.121Z,1009.88
2016-09-23T04:56:33.138Z,1009.88
2016-09-23T04:57:33.158Z,1009.87
2016-09-23T04:58:33.179Z,1009.89
2016-09-23T04:59:33.201Z,1009.86
2016-09-23T05:00:33.222Z,1009.85
2016-09-23T05:01:33.244Z,1009.9
2016-09-23T05:02:33.264Z,1009.89
2016-09-23T05:03:33.286Z,1009.89
2016-09-23T05:04:33.307Z,1009.87
2016-09-23T05:05:33.330Z,1009.88
2016-09-23T05:06:33.350Z,1009.93
2016-09-23T05:07:33.370Z,1009.9
2016-09-23T05:08:33.390Z,1009.91
2016-09-23T05:09:33.412Z,1009.91
2016-09-23T05:10:33.431Z,1009.92
2016-09-23T05:11:33.454Z,1009.96
2016-09-23T05:12:33.476Z,1009.95
2016-09-23T05:13:33.499Z,1010.01
2016-09-23T05:14:33.517Z,1009.96
2016-09-23T05:15:33.540Z,1010.02
2016-09-23T05:16:33.561Z,1010.02
2016-09-23T05:17:33.581Z,1010.03
2016-09-23T05:18:33.608Z,1010.03
2016-09-23T05:19:33.622Z,1010.06
2016-09-23T05:20:33.645Z,1010.13
2016-09-23T05:21:33.663Z,1010.09
2016-09-23T05:22:33.688Z,1010.08
2016-09-23T05:23:33.708Z,1010.08
2016-09-23T05:24:33.729Z,1010.1
2016-09-23T05:25:33.749Z,1010.09
2016-09-23T05:26:33.774Z,1010.13
2016-09-23T05:27:33.792Z,1010.21
2016-09-23T05:28:33.813Z,1010.21
2016-09-23T05:29:33.834Z,1010.19
2016-09-23T05:30:33.854Z,1010.17
2016-09-23T05:31:33.889Z,1010.15
2016-09-23T05:32:33.897Z,1010.22
2016-09-23T05:33:33.923Z,1010.2
2016-09-23T05:34:33.981Z,1010.22
2016-09-23T05:35:33.960Z,1010.18
2016-09-23T05:36:33.979Z,1010.22
2016-09-23T05:37:34.016Z,1010.22
2016-09-23T05:38:34.023Z,1010.27
2016-09-23T05:39:34.044Z,1010.28
2016-09-23T05:40:34.119Z,1010.29
2016-09-23T05:41:34.111Z,1010.33
2016-09-23T05:42:34.108Z,1010.33
2016-09-23T05:43:34.129Z,1010.35
2016-09-23T05:44:34.153Z,1010.38
2016-09-23T05:45:34.210Z,1010.38
2016-09-23T05:46:34.192Z,1010.42
2016-09-23T05:47:34.212Z,1010.41
2016-09-23T05:48:34.238Z,1010.44
2016-09-23T05:49:34.317Z,1010.45
2016-09-23T05:50:34.277Z,1010.45
2016-09-23T05:51:34.297Z,1010.47
2016-09-23T05:52:34.319Z,1010.45
2016-09-23T05:53:34.342Z,1010.48
2016-09-23T05:54:34.361Z,1010.49
2016-09-23T05:55:34.381Z,1010.47
2016-09-23T05:56:34.402Z,1010.46
2016-09-23T05:57:34.425Z,1010.46
2016-09-23T05:58:34.446Z,1010.51
2016-09-23T05:59:34.466Z,1010.48
2016-09-23T06:00:34.488Z,1010.44
2016-09-23T06:01:34.508Z,1010.47
2016-09-23T06:02:34.530Z,1010.47
2016-09-23T06:03:34.552Z,1010.46
2016-09-23T06:04:34.571Z,1010.47
2016-09-23T06:05:34.591Z,1010.48
2016-09-23T06:06:34.613Z,1010.49
2016-09-23T06:07:34.636Z,1010.5
2016-09-23T06:08:34.657Z,1010.52
2016-09-23T06:09:34.676Z,1010.54
2016-09-23T06:10:34.699Z,1010.52
2016-09-23T06:11:34.719Z,1010.52
2016-09-23T06:12:34.740Z,1010.52
2016-09-23T06:13:34.760Z,1010.61
2016-09-23T06:14:34.781Z,1010.58
2016-09-23T06:15:34.804Z,1010.58
2016-09-23T06:16:34.825Z,1010.64
2016-09-23T06:17:34.869Z,1010.62
2016-09-23T06:18:34.866Z,1010.65
2016-09-23T06:19:34.889Z,1010.64
2016-09-23T06:20:34.908Z,1010.65
2016-09-23T06:21:34.929Z,1010.65
2016-09-23T06:22:34.952Z,1010.67
2016-09-23T06:23:34.971Z,1010.67
2016-09-23T06:24:34.994Z,1010.67
2016-09-23T06:25:35.018Z,1010.67
2016-09-23T06:26:35.036Z,1010.7
2016-09-23T06:27:35.056Z,1010.72
2016-09-23T06:28:35.097Z,1010.71
2016-09-23T06:29:35.100Z,1010.7
2016-09-23T06:30:35.121Z,1010.71
2016-09-23T06:31:35.140Z,1010.72
2016-09-23T06:32:35.162Z,1010.7
2016-09-23T06:33:35.183Z,1010.72
2016-09-23T06:34:35.203Z,1010.69
2016-09-23T06:35:35.225Z,1010.67
2016-09-23T06:36:35.246Z,1010.73
2016-09-23T06:37:35.269Z,1010.73
2016-09-23T06:38:35.289Z,1010.71
2016-09-23T06:39:35.311Z,1010.72
2016-09-23T06:40:35.331Z,1010.69
2016-09-23T06:41:35.352Z,1010.71
2016-09-23T06:42:35.376Z,1010.7
2016-09-23T06:43:35.394Z,1010.74
2016-09-23T06:44:35.417Z,1010.71
2016-09-23T06:45:35.436Z,1010.72
2016-09-23T06:46:35.458Z,1010.71
2016-09-23T06:47:35.479Z,1010.77
2016-09-23T06:48:35.501Z,1010.73
2016-09-23T06:49:35.520Z,1010.71
2016-09-23T06:50:35.543Z,1010.75
2016-09-23T06:51:35.564Z,1010.74
2016-09-23T06:52:35.584Z,1010.76
2016-09-23T06:53:35.606Z,1010.8
2016-09-23T06:54:35.627Z,1010.8
2016-09-23T06:55:35.648Z,1010.79
2016-09-23T06:56:35.669Z,1010.8
2016-09-23T06:57:35.689Z,1010.83
2016-09-23T06:58:35.713Z,1010.79
2016-09-23T06:59:35.734Z,1010.86
2016-09-23T07:00:35.754Z,1010.82
2016-09-23T07:01:35.775Z,1010.82
2016-09-23T07:02:35.797Z,1010.84
2016-09-23T07:03:35.819Z,1010.84
2016-09-23T07:04:35.839Z,1010.85
2016-09-23T07:05:35.861Z,1010.85
2016-09-23T07:06:35.881Z,1010.91
2016-09-23T07:07:35.900Z,1010.88
2016-09-23T07:08:35.924Z,1010.87
2016-09-23T07:09:35.944Z,1010.9
2016-09-23T07:10:35.966Z,1010.91
2016-09-23T07:11:35.987Z,1010.92
2016-09-23T07:12:36.008Z,1010.96
2016-09-23T07:13:36.030Z,1010.97
2016-09-23T07:14:36.052Z,1010.99
2016-09-23T07:15:36.071Z,1011
2016-09-23T07:16:36.092Z,1011.03
2016-09-23T07:17:36.113Z,1011.03
2016-09-23T07:18:36.136Z,1011.02
2016-09-23T07:19:36.157Z,1011.01
2016-09-23T07:20:36.179Z,1010.99
2016-09-23T07:21:36.200Z,1011.02
2016-09-23T07:22:36.219Z,1011
2016-09-23T07:23:36.243Z,1010.99
2016-09-23T07:24:36.262Z,1011.04
2016-09-23T07:25:36.285Z,1011.05
2016-09-23T07:26:36.307Z,1011.03
2016-09-23T07:27:36.334Z,1011
2016-09-23T07:28:36.349Z,1011.07
2016-09-23T07:29:36.368Z,1011.03
2016-09-23T07:30:36.391Z,1011.1
2016-09-23T07:31:36.413Z,1011.08
2016-09-23T07:32:36.433Z,1011.07
2016-09-23T07:33:36.456Z,1011.04
2016-09-23T07:34:36.476Z,1011.06
2016-09-23T07:35:36.499Z,1011.07
2016-09-23T07:36:36.518Z,1011.08
2016-09-23T07:37:36.540Z,1011.07
2016-09-23T07:38:36.560Z,1011.05
2016-09-23T07:39:36.581Z,1011.03
2016-09-23T07:40:36.603Z,1011.07
2016-09-23T07:41:36.624Z,1011.08
2016-09-23T07:42:36.647Z,1011.06
2016-09-23T07:43:36.668Z,1011.07
2016-09-23T07:44:36.691Z,1011.05
2016-09-23T07:45:36.710Z,1011.08
2016-09-23T07:46:36.732Z,1011.08
2016-09-23T07:47:36.751Z,1011.09
2016-09-23T07:48:36.772Z,1011.04
2016-09-23T07:49:36.795Z,1011.02
2016-09-23T07:50:36.817Z,1011.01
2016-09-23T07:51:36.837Z,1011.03
2016-09-23T07:52:36.860Z,1011.02
2016-09-23T07:53:36.880Z,1011.02
2016-09-23T07:54:36.903Z,1011.04
2016-09-23T07:55:36.923Z,1011.07
2016-09-23T07:56:36.945Z,1011.1
2016-09-23T07:57:36.966Z,1011.11
2016-09-23T07:58:36.992Z,1011.08
2016-09-23T07:59:37.009Z,1011.09
2016-09-23T08:00:37.032Z,1011.12
2016-09-23T08:01:37.052Z,1011.12
2016-09-23T08:02:37.074Z,1011.09
2016-09-23T08:03:37.100Z,1011.16
2016-09-23T08:04:37.126Z,1011.15
2016-09-23T08:05:37.139Z,1011.15
2016-09-23T08:06:37.160Z,1011.23
2016-09-23T08:07:37.199Z,1011.21
2016-09-23T08:08:37.205Z,1011.26
2016-09-23T08:09:37.226Z,1011.22
2016-09-23T08:10:37.248Z,1011.2
2016-09-23T08:11:37.270Z,1011.21
2016-09-23T08:12:37.291Z,1011.24
2016-09-23T08:13:37.312Z,1011.26
2016-09-23T08:14:37.334Z,1011.24
2016-09-23T08:15:37.355Z,1011.25
2016-09-23T08:16:37.376Z,1011.28
2016-09-23T08:17:37.401Z,1011.25
2016-09-23T08:18:37.420Z,1011.29
2016-09-23T08:19:37.443Z,1011.33
2016-09-23T08:20:37.466Z,1011.29
2016-09-23T08:21:37.487Z,1011.32
2016-09-23T08:22:37.507Z,1011.35
2016-09-23T08:23:37.529Z,1011.34
2016-09-23T08:24:37.550Z,1011.35
2016-09-23T08:25:37.572Z,1011.36
2016-09-23T08:26:37.597Z,1011.37
2016-09-23T08:27:37.618Z,1011.37
2016-09-23T08:28:37.639Z,1011.33
2016-09-23T08:29:37.660Z,1011.34
2016-09-23T08:30:37.684Z,1011.38
2016-09-23T08:31:37.706Z,1011.43
2016-09-23T08:32:37.726Z,1011.39
2016-09-23T08:33:37.749Z,1011.44
2016-09-23T08:34:37.772Z,1011.43
2016-09-23T08:35:37.792Z,1011.51
2016-09-23T08:36:37.815Z,1011.46
2016-09-23T08:37:37.838Z,1011.48
2016-09-23T08:38:37.858Z,1011.5
2016-09-23T08:39:37.880Z,1011.52
2016-09-23T08:40:37.902Z,1011.53
2016-09-23T08:41:37.926Z,1011.57
2016-09-23T08:42:37.947Z,1011.56
2016-09-23T08:43:37.973Z,1011.55
2016-09-23T08:44:37.993Z,1011.56
2016-09-23T08:45:38.015Z,1011.54
2016-09-23T08:46:38.037Z,1011.57
2016-09-23T08:47:38.119Z,1011.6
2016-09-23T08:48:38.128Z,1011.57
2016-09-23T08:49:38.125Z,1011.6
2016-09-23T08:50:38.270Z,1011.55
2016-09-23T08:51:38.148Z,1011.57
2016-09-23T08:52:38.288Z,1011.6
2016-09-23T08:53:38.297Z,1011.58
2016-09-23T08:54:38.320Z,1011.57
2016-09-23T08:55:38.328Z,1011.59
2016-09-23T08:56:38.337Z,1011.57
2016-09-23T08:57:38.347Z,1011.54
2016-09-23T08:58:38.356Z,1011.54
2016-09-23T08:59:38.353Z,1011.56
2016-09-23T09:00:38.448Z,1011.56
2016-09-23T09:01:38.409Z,1011.59
2016-09-23T09:02:38.418Z,1011.55
2016-09-23T09:03:38.419Z,1011.55
2016-09-23T09:04:38.437Z,1011.52
2016-09-23T09:05:38.519Z,1011.53
2016-09-23T09:06:38.492Z,1011.55
2016-09-23T09:07:38.515Z,1011.56
2016-09-23T09:08:38.538Z,1011.54
2016-09-23T09:09:38.559Z,1011.56
2016-09-23T09:10:38.579Z,1011.54
2016-09-23T09:11:38.604Z,1011.56
2016-09-23T09:12:38.623Z,1011.55
2016-09-23T09:13:38.647Z,1011.52
2016-09-23T09:14:38.670Z,1011.5
2016-09-23T09:15:38.695Z,1011.53
2016-09-23T09:16:38.715Z,1011.54
2016-09-23T09:17:38.747Z,1011.5
2016-09-23T09:18:38.761Z,1011.51
2016-09-23T09:19:38.786Z,1011.51
2016-09-23T09:20:38.806Z,1011.5
2016-09-23T09:21:38.830Z,1011.51
2016-09-23T09:22:38.852Z,1011.47
2016-09-23T09:23:38.875Z,1011.46
2016-09-23T09:24:38.901Z,1011.53
2016-09-23T09:25:38.926Z,1011.47
2016-09-23T09:26:38.946Z,1011.46
2016-09-23T09:27:38.967Z,1011.5
2016-09-23T09:28:38.990Z,1011.45
2016-09-23T09:29:39.013Z,1011.45
2016-09-23T09:30:39.036Z,1011.45
2016-09-23T09:31:39.064Z,1011.49
2016-09-23T09:32:39.083Z,1011.42
2016-09-23T09:33:39.104Z,1011.45
2016-09-23T09:34:39.129Z,1011.48
2016-09-23T09:35:39.155Z,1011.43
2016-09-23T09:36:39.177Z,1011.46
2016-09-23T09:37:39.201Z,1011.45
2016-09-23T09:38:39.222Z,1011.46
2016-09-23T09:39:39.249Z,1011.49
2016-09-23T09:40:39.272Z,1011.49
2016-09-23T09:41:39.290Z,1011.5
2016-09-23T09:42:39.318Z,1011.47
2016-09-23T09:43:39.338Z,1011.49
2016-09-23T09:44:39.364Z,1011.55
2016-09-23T09:45:39.384Z,1011.58
2016-09-23T09:46:39.411Z,1011.54
2016-09-23T09:47:39.436Z,1011.63
2016-09-23T09:48:39.457Z,1011.62
2016-09-23T09:49:39.482Z,1011.66
2016-09-23T09:50:39.502Z,1011.64
2016-09-23T09:51:39.530Z,1011.6
2016-09-23T09:52:39.552Z,1011.65
2016-09-23T09:53:39.576Z,1011.71
2016-09-23T09:54:39.598Z,1011.66
2016-09-23T09:55:39.621Z,1011.62
2016-09-23T09:56:39.648Z,1011.61
2016-09-23T09:57:39.672Z,1011.61
2016-09-23T09:58:39.694Z,1011.6
2016-09-23T09:59:39.719Z,1011.58
2016-09-23T10:00:39.740Z,1011.6
2016-09-23T10:01:39.767Z,1011.61
2016-09-23T10:02:39.792Z,1011.6
2016-09-23T10:03:39.811Z,1011.55
2016-09-23T10:04:39.839Z,1011.58
2016-09-23T10:05:39.862Z,1011.57
2016-09-23T10:06:39.883Z,1011.63
2016-09-23T10:07:39.907Z,1011.57
2016-09-23T10:08:39.931Z,1011.6
2016-09-23T10:09:39.959Z,1011.58
2016-09-23T10:10:39.981Z,1011.62
2016-09-23T10:11:40.007Z,1011.62
2016-09-23T10:12:40.033Z,1011.6
2016-09-23T10:13:40.053Z,1011.61
2016-09-23T10:14:40.079Z,1011.61
2016-09-23T10:15:40.104Z,1011.6
2016-09-23T10:16:40.129Z,1011.64
2016-09-23T10:17:40.149Z,1011.65
2016-09-23T10:18:40.173Z,1011.65
2016-09-23T10:19:40.198Z,1011.64
2016-09-23T10:20:40.221Z,1011.62
2016-09-23T10:21:40.254Z,1011.62
2016-09-23T10:22:40.273Z,1011.61
2016-09-23T10:23:40.295Z,1011.62
2016-09-23T10:24:40.324Z,1011.67
2016-09-23T10:25:40.348Z,1011.62
2016-09-23T10:26:40.372Z,1011.64
2016-09-23T10:27:40.396Z,1011.6
2016-09-23T10:28:40.423Z,1011.58
2016-09-23T10:29:40.441Z,1011.57
2016-09-23T10:30:40.470Z,1011.55
2016-09-23T10:31:40.492Z,1011.58
2016-09-23T10:32:40.518Z,1011.54
2016-09-23T10:33:40.540Z,1011.58
2016-09-23T10:34:40.566Z,1011.56
2016-09-23T10:35:40.594Z,1011.55
2016-09-23T10:36:40.614Z,1011.56
2016-09-23T10:37:40.641Z,1011.54
2016-09-23T10:38:40.667Z,1011.61
2016-09-23T10:39:40.691Z,1011.61
2016-09-23T10:40:40.715Z,1011.58
2016-09-23T10:41:40.739Z,1011.57
2016-09-23T10:42:40.766Z,1011.59
2016-09-23T10:43:40.791Z,1011.58
2016-09-23T10:44:40.820Z,1011.63
2016-09-23T10:45:40.851Z,1011.61
2016-09-23T10:46:40.869Z,1011.61
2016-09-23T10:47:40.894Z,1011.56
2016-09-23T10:48:40.919Z,1011.58
2016-09-23T10:49:40.942Z,1011.58
2016-09-23T10:50:40.968Z,1011.59
2016-09-23T10:51:40.992Z,1011.57
2016-09-23T10:52:41.017Z,1011.55
2016-09-23T10:53:41.042Z,1011.58
2016-09-23T10:54:41.071Z,1011.55
2016-09-23T10:55:41.096Z,1011.6
2016-09-23T10:56:41.119Z,1011.54
2016-09-23T10:57:41.146Z,1011.54
2016-09-23T10:58:41.171Z,1011.57
2016-09-23T10:59:41.198Z,1011.58
2016-09-23T11:00:41.222Z,1011.52
2016-09-23T11:01:41.248Z,1011.59
2016-09-23T11:02:41.274Z,1011.56
2016-09-23T11:03:41.299Z,1011.57
2016-09-23T11:04:41.325Z,1011.54
2016-09-23T11:05:41.350Z,1011.56
2016-09-23T11:06:41.374Z,1011.59
2016-09-23T11:07:41.402Z,1011.57
2016-09-23T11:08:41.427Z,1011.67
2016-09-23T11:09:41.453Z,1011.65
2016-09-23T11:10:41.479Z,1011.62
2016-09-23T11:11:41.502Z,1011.61
2016-09-23T11:12:41.527Z,1011.63
2016-09-23T11:13:41.556Z,1011.68
2016-09-23T11:14:41.583Z,1011.66
2016-09-23T11:15:41.605Z,1011.63
2016-09-23T11:16:41.633Z,1011.62
2016-09-23T11:17:41.662Z,1011.63
2016-09-23T11:18:41.686Z,1011.62
2016-09-23T11:19:41.712Z,1011.66
2016-09-23T11:20:41.738Z,1011.68
2016-09-23T11:21:41.760Z,1011.66
2016-09-23T11:22:41.791Z,1011.63
2016-09-23T11:23:41.816Z,1011.66
2016-09-23T11:24:41.839Z,1011.69
2016-09-23T11:25:41.865Z,1011.71
2016-09-23T11:26:41.891Z,1011.69
2016-09-23T11:27:41.920Z,1011.66
2016-09-23T11:28:41.944Z,1011.64
2016-09-23T11:29:41.975Z,1011.64
2016-09-23T11:30:41.999Z,1011.62
2016-09-23T11:31:42.026Z,1011.65
2016-09-23T11:32:42.054Z,1011.64
2016-09-23T11:33:42.079Z,1011.69
2016-09-23T11:34:42.105Z,1011.61
2016-09-23T11:35:42.128Z,1011.68
2016-09-23T11:36:42.155Z,1011.69
2016-09-23T11:37:42.183Z,1011.67
2016-09-23T11:38:42.211Z,1011.67
2016-09-23T11:39:42.237Z,1011.66
2016-09-23T11:40:42.261Z,1011.67
2016-09-23T11:41:42.286Z,1011.67
2016-09-23T11:42:42.317Z,1011.62
2016-09-23T11:43:42.339Z,1011.64
2016-09-23T11:44:42.367Z,1011.62
2016-09-23T11:45:42.399Z,1011.64
2016-09-23T11:46:42.419Z,1011.6
2016-09-23T11:47:42.447Z,1011.66
2016-09-23T11:48:42.473Z,1011.66
2016-09-23T11:49:42.503Z,1011.67
2016-09-23T11:50:42.530Z,1011.64
2016-09-23T11:51:42.554Z,1011.64
2016-09-23T11:52:42.585Z,1011.62
2016-09-23T11:53:42.611Z,1011.58
2016-09-23T11:54:42.637Z,1011.61
2016-09-23T11:55:42.668Z,1011.6
2016-09-23T11:56:42.691Z,1011.59
2016-09-23T11:57:42.714Z,1011.61
2016-09-23T11:58:42.746Z,1011.59
2016-09-23T11:59:42.773Z,1011.57
2016-09-23T12:00:42.796Z,1011.62
2016-09-23T12:01:42.823Z,1011.61
2016-09-23T12:02:42.849Z,1011.62
2016-09-23T12:03:42.879Z,1011.61
2016-09-23T12:04:42.918Z,1011.61
2016-09-23T12:05:42.931Z,1011.59
2016-09-23T12:06:42.959Z,1011.63
2016-09-23T12:07:42.989Z,1011.65